createdAt,value
2018-04-30T00:01:08.309Z,11.10
2018-04-30T00:03:37.109Z,10.97
2018-04-30T00:06:05.557Z,8.63
2018-04-30T00:08:33.964Z,8.93
2018-04-30T00:11:02.365Z,9.73
2018-04-30T00:13:30.727Z,6.57
2018-04-30T00:15:59.088Z,9.60
2018-04-30T00:18:27.500Z,9.63
2018-04-30T00:20:56.675Z,9.33
2018-04-30T00:23:25.121Z,11.10
2018-04-30T00:25:53.818Z,13.03
2018-04-30T00:28:22.329Z,9.40
2018-04-30T00:30:50.727Z,10.50
2018-04-30T00:33:19.124Z,8.93
2018-04-30T00:35:48.228Z,9.17
2018-04-30T00:38:16.648Z,13.47
2018-04-30T00:40:45.040Z,11.00
2018-04-30T00:43:14.226Z,10.27
2018-04-30T00:45:42.742Z,8.53
2018-04-30T00:48:11.148Z,8.10
2018-04-30T00:50:39.551Z,8.10
2018-04-30T00:53:07.961Z,9.60
2018-04-30T00:55:36.411Z,10.23
2018-04-30T00:58:04.750Z,11.93
2018-04-30T01:00:33.187Z,9.73
2018-04-30T01:03:01.784Z,10.17
2018-04-30T01:05:30.154Z,9.93
2018-04-30T01:07:58.651Z,12.17
2018-04-30T01:10:27.255Z,8.13
2018-04-30T01:12:55.679Z,10.97
2018-04-30T01:15:24.059Z,11.73
2018-04-30T01:17:52.419Z,14.00
2018-04-30T01:20:20.921Z,9.07
2018-04-30T01:22:49.465Z,9.67
2018-04-30T01:25:17.865Z,9.27
2018-04-30T01:27:47.114Z,8.80
2018-04-30T01:30:15.464Z,10.73
2018-04-30T01:32:44.641Z,11.07
2018-04-30T01:35:13.001Z,8.20
2018-04-30T01:37:42.129Z,9.80
2018-04-30T01:40:10.647Z,9.83
2018-04-30T01:42:39.604Z,14.13
2018-04-30T01:45:08.185Z,9.17
2018-04-30T01:47:36.569Z,13.20
2018-04-30T01:50:04.943Z,12.10
2018-04-30T01:52:33.429Z,8.77
2018-04-30T01:55:01.815Z,11.07
2018-04-30T01:57:30.286Z,9.57
2018-04-30T01:59:58.624Z,9.03
2018-04-30T02:02:27.576Z,9.33
2018-04-30T02:04:56.549Z,9.23
2018-04-30T02:07:25.551Z,10.83
2018-04-30T02:09:54.084Z,12.50
2018-04-30T02:12:22.433Z,9.60
2018-04-30T02:14:50.814Z,12.03
2018-04-30T02:17:20.159Z,8.93
2018-04-30T02:19:48.593Z,8.57
2018-04-30T02:22:17.912Z,9.47
2018-04-30T02:24:46.273Z,9.03
2018-04-30T02:27:14.683Z,11.80
2018-04-30T02:29:43.034Z,10.37
2018-04-30T02:32:11.415Z,9.47
2018-04-30T02:34:39.893Z,13.07
2018-04-30T02:37:08.263Z,10.60
2018-04-30T02:39:36.855Z,9.00
2018-04-30T02:42:05.219Z,8.60
2018-04-30T02:44:33.601Z,11.23
2018-04-30T02:47:02.122Z,15.83
2018-04-30T02:49:31.404Z,10.13
2018-04-30T02:52:00.374Z,8.97
2018-04-30T02:54:29.372Z,10.40
2018-04-30T02:56:58.088Z,9.20
2018-04-30T02:59:28.781Z,10.70
2018-04-30T03:01:57.270Z,10.60
2018-04-30T03:04:25.631Z,15.73
2018-04-30T03:06:54.011Z,9.40
2018-04-30T03:09:22.542Z,11.73
2018-04-30T03:11:51.919Z,11.03
2018-04-30T03:14:22.311Z,18.40
2018-04-30T03:16:50.901Z,11.80
2018-04-30T03:19:19.355Z,11.10
2018-04-30T03:21:47.814Z,12.53
2018-04-30T03:24:16.187Z,11.40
2018-04-30T03:26:44.545Z,12.10
2018-04-30T03:29:12.909Z,13.43
2018-04-30T03:31:41.332Z,11.43
2018-04-30T03:34:10.053Z,13.23
2018-04-30T03:36:38.735Z,14.17
2018-04-30T03:39:07.072Z,14.13
2018-04-30T03:41:35.527Z,14.27
2018-04-30T03:44:03.918Z,13.87
2018-04-30T03:46:33.143Z,13.43
2018-04-30T03:49:01.508Z,14.30
2018-04-30T03:51:29.907Z,15.07
2018-04-30T03:53:58.268Z,16.43
2018-04-30T03:56:27.065Z,14.67
2018-04-30T03:58:55.520Z,14.67
2018-04-30T04:01:35.690Z,14.67
2018-04-30T04:04:16.004Z,24.70
2018-04-30T04:06:52.075Z,19.07
2018-04-30T04:09:20.458Z,13.30
2018-04-30T04:11:48.941Z,14.43
2018-04-30T04:14:17.347Z,17.87
2018-04-30T04:16:46.522Z,17.53
2018-04-30T04:19:14.890Z,17.17
2018-04-30T04:21:44.001Z,20.83
2018-04-30T04:24:12.378Z,17.40
2018-04-30T04:26:40.844Z,18.87
2018-04-30T04:29:11.264Z,15.90
2018-04-30T04:31:40.728Z,16.50
2018-04-30T04:34:09.119Z,16.63
2018-04-30T04:36:37.853Z,17.57
2018-04-30T04:39:07.363Z,17.80
2018-04-30T04:41:35.856Z,16.03
2018-04-30T04:44:04.126Z,21.17
2018-04-30T04:46:32.499Z,18.33
2018-04-30T04:49:00.916Z,19.87
2018-04-30T04:51:29.339Z,25.73
2018-04-30T04:53:57.752Z,17.87
2018-04-30T04:56:26.159Z,19.67
2018-04-30T04:58:54.500Z,16.53
2018-04-30T05:01:22.876Z,20.13
2018-04-30T05:03:51.256Z,16.43
2018-04-30T05:06:19.606Z,17.53
2018-04-30T05:08:47.995Z,17.00
2018-04-30T05:11:16.531Z,17.40
2018-04-30T05:13:44.916Z,17.90
2018-04-30T05:16:13.293Z,20.20
2018-04-30T05:18:41.651Z,17.27
2018-04-30T05:21:10.043Z,16.10
2018-04-30T05:23:38.537Z,20.67
2018-04-30T05:26:06.988Z,19.67
2018-04-30T05:28:35.439Z,16.50
2018-04-30T05:31:04.658Z,36.73
2018-04-30T05:33:33.062Z,28.30
2018-04-30T05:36:01.473Z,19.63
2018-04-30T05:38:29.994Z,19.67
2018-04-30T05:40:58.379Z,25.50
2018-04-30T05:43:26.878Z,22.73
2018-04-30T05:45:56.168Z,19.60
2018-04-30T05:51:00.103Z,18.40
2018-04-30T05:53:29.176Z,18.53
2018-04-30T05:56:02.435Z,19.93
2018-04-30T05:58:30.854Z,18.13
2018-04-30T06:00:59.235Z,18.77
2018-04-30T06:03:28.339Z,18.63
2018-04-30T06:05:56.791Z,17.10
2018-04-30T06:08:26.216Z,20.93
2018-04-30T06:10:56.457Z,24.23
2018-04-30T06:13:25.052Z,18.03
2018-04-30T06:15:53.423Z,17.97
2018-04-30T06:18:21.815Z,20.93
2018-04-30T06:20:50.237Z,16.83
2018-04-30T06:23:18.780Z,16.07
2018-04-30T06:25:47.489Z,18.87
2018-04-30T06:28:15.830Z,19.27
2018-04-30T06:30:44.179Z,15.33
2018-04-30T06:33:13.384Z,21.43
2018-04-30T06:35:42.569Z,18.10
2018-04-30T06:38:10.873Z,15.07
2018-04-30T06:40:40.250Z,14.57
2018-04-30T06:43:08.600Z,15.27
2018-04-30T06:45:38.520Z,15.63
2018-04-30T06:48:07.796Z,16.43
2018-04-30T06:50:36.219Z,14.17
2018-04-30T06:53:04.632Z,17.63
2018-04-30T06:55:33.022Z,18.37
2018-04-30T06:58:01.383Z,14.17
2018-04-30T07:00:29.788Z,16.40
2018-04-30T07:02:58.138Z,17.20
2018-04-30T07:05:26.508Z,15.67
2018-04-30T07:07:55.650Z,16.97
2018-04-30T07:10:24.044Z,14.37
2018-04-30T07:12:52.391Z,16.13
2018-04-30T07:15:21.235Z,12.23
2018-04-30T07:17:49.567Z,13.27
2018-04-30T07:20:17.927Z,13.03
2018-04-30T07:22:46.285Z,11.87
2018-04-30T07:25:14.659Z,12.20
2018-04-30T07:27:43.139Z,11.60
2018-04-30T07:30:11.442Z,10.57
2018-04-30T07:32:39.854Z,10.23
2018-04-30T07:35:08.195Z,12.57
2018-04-30T07:37:37.307Z,9.10
2018-04-30T07:40:05.660Z,10.93
2018-04-30T07:42:34.052Z,10.83
2018-04-30T07:45:03.172Z,10.63
2018-04-30T07:47:31.534Z,11.20
2018-04-30T07:49:59.936Z,9.53
2018-04-30T07:52:28.289Z,9.77
2018-04-30T07:54:56.808Z,7.27
2018-04-30T07:57:25.160Z,10.77
2018-04-30T07:59:53.531Z,9.03
2018-04-30T08:02:22.697Z,8.63
2018-04-30T08:04:51.041Z,9.10
2018-04-30T08:07:19.369Z,9.93
2018-04-30T08:09:47.757Z,7.73
2018-04-30T08:12:16.858Z,9.60
2018-04-30T08:14:46.044Z,7.57
2018-04-30T08:17:14.340Z,5.90
2018-04-30T08:19:43.471Z,4.40
2018-04-30T08:22:11.916Z,3.67
2018-04-30T08:24:40.275Z,4.30
2018-04-30T08:27:08.631Z,2.20
2018-04-30T08:29:37.071Z,3.00
2018-04-30T08:32:05.426Z,4.90
2018-04-30T08:34:34.775Z,1.77
2018-04-30T08:37:03.121Z,3.43
2018-04-30T08:39:32.041Z,3.70
2018-04-30T08:42:00.394Z,0.90
2018-04-30T08:44:28.750Z,2.43
2018-04-30T08:46:57.862Z,3.00
2018-04-30T08:49:26.246Z,2.27
2018-04-30T08:51:54.611Z,3.47
2018-04-30T08:54:23.747Z,4.00
2018-04-30T08:56:52.099Z,2.83
2018-04-30T08:59:22.024Z,3.70
2018-04-30T09:01:50.426Z,1.03
2018-04-30T09:04:18.770Z,2.03
2018-04-30T09:06:47.888Z,2.40
2018-04-30T09:09:17.092Z,2.97
2018-04-30T09:11:45.447Z,3.03
2018-04-30T09:14:13.811Z,1.13
2018-04-30T09:16:42.934Z,1.87
2018-04-30T09:19:11.294Z,2.00
2018-04-30T09:21:40.410Z,0.97
2018-04-30T09:24:08.754Z,1.80
2018-04-30T09:26:38.055Z,2.60
2018-04-30T09:29:06.442Z,2.90
2018-04-30T09:31:34.949Z,3.50
2018-04-30T09:34:04.063Z,0.80
2018-04-30T09:36:32.396Z,1.63
2018-04-30T09:39:00.823Z,1.03
2018-04-30T09:41:29.195Z,2.60
2018-04-30T09:43:57.689Z,2.63
2018-04-30T09:46:26.063Z,3.83
2018-04-30T09:48:54.440Z,2.13
2018-04-30T09:51:22.813Z,1.97
2018-04-30T09:53:51.216Z,1.60
2018-04-30T09:56:19.654Z,1.33
2018-04-30T09:58:48.870Z,3.20
2018-04-30T10:01:17.236Z,2.70
2018-04-30T10:03:45.585Z,1.50
2018-04-30T10:06:13.929Z,1.00
2018-04-30T10:08:42.321Z,1.93
2018-04-30T10:11:11.579Z,1.73
2018-04-30T10:13:39.935Z,2.00
2018-04-30T10:16:09.048Z,2.03
2018-04-30T10:18:37.570Z,1.60
2018-04-30T10:21:05.906Z,1.77
2018-04-30T10:23:34.344Z,1.80
2018-04-30T10:26:02.659Z,2.67
2018-04-30T10:28:31.027Z,5.17
2018-04-30T10:31:00.174Z,2.07
2018-04-30T10:33:28.562Z,2.33
2018-04-30T10:35:56.934Z,2.03
2018-04-30T10:38:25.372Z,3.53
2018-04-30T10:40:53.789Z,2.50
2018-04-30T10:43:22.153Z,1.67
2018-04-30T10:45:50.572Z,1.37
2018-04-30T10:48:18.882Z,1.63
2018-04-30T10:50:48.000Z,5.83
2018-04-30T10:53:16.679Z,4.93
2018-04-30T10:55:45.959Z,1.83
2018-04-30T10:58:14.439Z,2.70
2018-04-30T11:00:42.785Z,1.90
2018-04-30T11:03:11.132Z,1.10
2018-04-30T11:05:39.525Z,1.27
2018-04-30T11:08:07.879Z,1.87
2018-04-30T11:10:36.230Z,1.47
2018-04-30T11:13:05.347Z,0.70
2018-04-30T11:15:33.686Z,2.00
2018-04-30T11:18:02.047Z,2.13
2018-04-30T11:20:30.443Z,2.20
2018-04-30T11:22:58.794Z,1.53
2018-04-30T11:25:27.181Z,3.60
2018-04-30T11:27:55.524Z,1.53
2018-04-30T11:30:24.674Z,0.87
2018-04-30T11:32:53.062Z,0.90
2018-04-30T11:35:21.469Z,0.87
2018-04-30T11:37:50.593Z,5.10
2018-04-30T11:40:18.947Z,0.90
2018-04-30T11:42:48.058Z,1.03
2018-04-30T11:45:16.407Z,2.73
2018-04-30T11:47:44.759Z,3.33
2018-04-30T11:50:13.286Z,1.00
2018-04-30T11:52:42.434Z,1.37
2018-04-30T11:55:11.534Z,0.90
2018-04-30T11:57:39.876Z,1.23
2018-04-30T12:00:08.209Z,0.90
2018-04-30T12:02:36.579Z,5.60
2018-04-30T12:05:04.993Z,0.83
2018-04-30T12:07:33.328Z,1.73
2018-04-30T12:10:01.679Z,1.47
2018-04-30T12:12:30.075Z,1.13
2018-04-30T12:14:58.455Z,1.33
2018-04-30T12:17:26.834Z,1.13
2018-04-30T12:19:55.180Z,4.00
2018-04-30T12:22:23.590Z,2.17
2018-04-30T12:24:51.947Z,1.43
2018-04-30T12:27:20.337Z,1.43
2018-04-30T12:29:48.849Z,1.10
2018-04-30T12:32:17.577Z,2.03
2018-04-30T12:34:45.936Z,1.13
2018-04-30T12:37:14.346Z,2.57
2018-04-30T12:39:43.461Z,2.03
2018-04-30T12:42:11.813Z,2.43
2018-04-30T12:44:41.440Z,1.10
2018-04-30T12:47:10.251Z,1.10
2018-04-30T12:49:39.332Z,1.37
2018-04-30T12:52:07.638Z,1.83
2018-04-30T12:54:36.416Z,1.30
2018-04-30T12:57:04.839Z,1.97
2018-04-30T12:59:34.089Z,0.80
2018-04-30T13:02:02.468Z,1.67
2018-04-30T13:04:30.810Z,2.97
2018-04-30T13:07:00.214Z,1.67
2018-04-30T13:09:28.597Z,1.40
2018-04-30T13:11:57.720Z,3.30
2018-04-30T13:14:26.061Z,2.33
2018-04-30T13:16:55.191Z,1.83
2018-04-30T13:19:23.518Z,2.53
2018-04-30T13:21:51.991Z,0.97
2018-04-30T13:24:21.287Z,1.77
2018-04-30T13:26:49.796Z,3.90
2018-04-30T13:29:18.137Z,2.13
2018-04-30T13:31:46.519Z,2.83
2018-04-30T13:34:15.036Z,2.17
2018-04-30T13:36:43.372Z,2.40
2018-04-30T13:39:13.557Z,1.40
2018-04-30T13:41:43.263Z,2.70
2018-04-30T13:44:12.383Z,2.03
2018-04-30T13:46:40.827Z,1.10
2018-04-30T13:49:09.188Z,2.60
2018-04-30T13:51:37.588Z,1.20
2018-04-30T13:54:05.953Z,1.40
2018-04-30T13:56:34.303Z,1.00
2018-04-30T13:59:02.655Z,1.00
2018-04-30T14:01:31.113Z,1.37
2018-04-30T14:03:59.430Z,2.20
2018-04-30T14:06:28.777Z,2.90
2018-04-30T14:08:57.296Z,1.67
2018-04-30T14:11:25.695Z,2.13
2018-04-30T14:13:54.080Z,2.67
2018-04-30T14:16:22.452Z,2.83
2018-04-30T14:18:50.808Z,2.13
2018-04-30T14:21:19.167Z,5.67
2018-04-30T14:23:48.343Z,2.73
2018-04-30T14:26:16.972Z,5.00
2018-04-30T14:28:45.673Z,2.57
2018-04-30T14:31:14.050Z,2.03
2018-04-30T14:33:42.432Z,3.10
2018-04-30T14:36:10.926Z,3.53
2018-04-30T14:38:39.295Z,3.43
2018-04-30T14:41:07.718Z,1.87
2018-04-30T14:43:36.073Z,2.30
2018-04-30T14:46:04.402Z,2.13
2018-04-30T14:48:33.070Z,1.30
2018-04-30T14:51:01.647Z,1.80
2018-04-30T14:53:30.194Z,1.23
2018-04-30T14:55:58.541Z,2.17
2018-04-30T14:58:26.920Z,3.30
2018-04-30T15:00:55.335Z,1.30
2018-04-30T15:03:23.722Z,3.37
2018-04-30T15:05:52.175Z,3.17
2018-04-30T15:08:20.641Z,1.60
2018-04-30T15:10:49.768Z,1.17
2018-04-30T15:13:18.183Z,1.43
2018-04-30T15:15:46.548Z,3.83
2018-04-30T15:18:15.112Z,2.80
2018-04-30T15:20:43.488Z,0.93
2018-04-30T15:23:11.911Z,1.63
2018-04-30T15:25:40.268Z,2.78
2018-04-30T15:28:08.653Z,1.85
2018-04-30T15:30:37.583Z,3.33
2018-04-30T15:33:06.824Z,1.37
2018-04-30T15:35:35.217Z,4.65
2018-04-30T15:38:04.300Z,2.28
2018-04-30T15:40:32.654Z,5.20
2018-04-30T15:43:01.067Z,1.53
2018-04-30T15:45:29.413Z,1.27
2018-04-30T15:47:57.749Z,2.07
2018-04-30T15:50:26.250Z,1.43
2018-04-30T15:52:55.370Z,2.20
2018-04-30T15:55:23.843Z,3.33
2018-04-30T15:57:52.948Z,6.43
2018-04-30T16:00:21.438Z,3.23
2018-04-30T16:02:49.930Z,3.23
2018-04-30T16:05:18.476Z,4.27
2018-04-30T16:07:47.570Z,1.63
2018-04-30T16:10:16.705Z,1.27
2018-04-30T16:12:45.084Z,2.50
2018-04-30T16:15:13.492Z,1.63
2018-04-30T16:17:41.844Z,5.43
2018-04-30T16:20:11.263Z,1.13
2018-04-30T16:22:39.593Z,1.37
2018-04-30T16:25:07.962Z,1.00
2018-04-30T16:27:37.122Z,2.30
2018-04-30T16:30:05.692Z,1.83
2018-04-30T16:32:34.051Z,5.20
2018-04-30T16:35:02.381Z,1.60
2018-04-30T16:37:30.793Z,2.43
2018-04-30T16:39:59.883Z,3.20
2018-04-30T16:42:29.070Z,1.70
2018-04-30T16:44:57.566Z,3.10
2018-04-30T16:47:26.713Z,7.57
2018-04-30T16:49:55.087Z,4.87
2018-04-30T16:52:24.435Z,3.53
2018-04-30T16:54:53.557Z,4.33
2018-04-30T16:57:22.063Z,2.90
2018-04-30T16:59:50.584Z,3.57
2018-04-30T17:02:18.929Z,1.58
2018-04-30T17:04:47.407Z,3.67
2018-04-30T17:07:15.784Z,3.27
2018-04-30T17:09:44.175Z,3.73
2018-04-30T17:12:12.514Z,5.90
2018-04-30T17:14:40.862Z,4.17
2018-04-30T17:17:09.519Z,3.63
2018-04-30T17:19:38.009Z,4.43
2018-04-30T17:22:06.416Z,3.37
2018-04-30T17:24:34.845Z,3.33
2018-04-30T17:27:03.187Z,5.33
2018-04-30T17:29:32.319Z,2.83
2018-04-30T17:32:00.702Z,1.90
2018-04-30T17:34:29.046Z,1.50
2018-04-30T17:36:58.302Z,2.17
2018-04-30T17:39:26.868Z,1.90
2018-04-30T17:41:55.312Z,1.23
2018-04-30T17:44:24.438Z,2.33
2018-04-30T17:46:52.809Z,2.07
2018-04-30T17:49:21.146Z,1.53
2018-04-30T17:51:50.403Z,4.30
2018-04-30T17:54:18.787Z,2.23
2018-04-30T17:56:47.943Z,1.40
2018-04-30T17:59:17.308Z,2.80
2018-04-30T18:01:45.731Z,2.13
2018-04-30T18:04:14.295Z,2.83
2018-04-30T18:06:42.967Z,2.53
2018-04-30T18:09:12.225Z,2.00
2018-04-30T18:11:40.576Z,1.83
2018-04-30T18:14:09.801Z,2.57
2018-04-30T18:16:38.397Z,3.27
2018-04-30T18:19:06.869Z,3.10
2018-04-30T18:21:35.383Z,2.60
2018-04-30T18:24:03.870Z,3.80
2018-04-30T18:26:33.472Z,1.83
2018-04-30T18:29:02.021Z,3.73
2018-04-30T18:31:31.342Z,1.50
2018-04-30T18:33:59.770Z,2.43
2018-04-30T18:36:28.132Z,1.53
2018-04-30T18:38:56.619Z,2.10
2018-04-30T18:41:24.978Z,2.50
2018-04-30T18:43:53.341Z,3.07
2018-04-30T18:46:21.720Z,2.57
2018-04-30T18:48:50.120Z,1.23
2018-04-30T18:51:18.640Z,3.23
2018-04-30T18:53:47.852Z,1.73
2018-04-30T18:56:16.206Z,3.20
2018-04-30T18:58:45.415Z,6.63
2018-04-30T19:01:14.644Z,3.70
2018-04-30T19:03:42.997Z,2.70
2018-04-30T19:06:11.400Z,3.43
2018-04-30T19:08:39.742Z,3.43
2018-04-30T19:11:08.254Z,2.67
2018-04-30T19:13:36.607Z,4.80
2018-04-30T19:16:05.725Z,3.87
2018-04-30T19:18:34.091Z,2.17
2018-04-30T19:21:02.682Z,2.17
2018-04-30T19:23:31.788Z,2.30
2018-04-30T19:26:00.290Z,3.87
2018-04-30T19:28:32.843Z,3.10
2018-04-30T19:31:02.209Z,3.53
2018-04-30T19:33:30.570Z,2.40
2018-04-30T19:35:58.987Z,3.90
2018-04-30T19:38:28.254Z,5.57
2018-04-30T19:40:56.607Z,5.50
2018-04-30T19:43:24.986Z,4.03
2018-04-30T19:45:53.407Z,8.07
2018-04-30T19:48:21.899Z,3.90
2018-04-30T19:50:51.059Z,3.00
2018-04-30T19:53:19.436Z,1.43
2018-04-30T19:55:48.021Z,2.27
2018-04-30T19:58:17.249Z,3.23
2018-04-30T20:00:45.627Z,2.13
2018-04-30T20:03:14.081Z,3.73
2018-04-30T20:05:42.527Z,0.97
2018-04-30T20:08:11.016Z,1.07
2018-04-30T20:10:39.482Z,2.53
2018-04-30T20:13:08.355Z,1.73
2018-04-30T20:15:37.551Z,2.30
2018-04-30T20:18:05.964Z,1.40
2018-04-30T20:20:34.362Z,1.43
2018-04-30T20:23:02.726Z,2.93
2018-04-30T20:25:31.101Z,0.70
2018-04-30T20:27:59.476Z,1.27
2018-04-30T20:30:27.877Z,2.17
2018-04-30T20:32:56.316Z,1.53
2018-04-30T20:35:24.637Z,1.83
2018-04-30T20:37:53.033Z,0.60
2018-04-30T20:40:21.372Z,0.60
2018-04-30T20:42:50.169Z,2.20
2018-04-30T20:45:18.554Z,1.40
2018-04-30T20:47:47.103Z,1.07
2018-04-30T20:50:15.468Z,0.83
2018-04-30T20:52:43.910Z,1.90
2018-04-30T20:55:12.390Z,0.70
2018-04-30T20:57:41.679Z,2.17
2018-04-30T21:00:10.374Z,0.77
2018-04-30T21:02:39.442Z,0.57
2018-04-30T21:05:08.996Z,0.83
2018-04-30T21:07:37.445Z,1.37
2018-04-30T21:10:05.896Z,1.90
2018-04-30T21:12:35.873Z,0.80
2018-04-30T21:15:04.249Z,1.40
2018-04-30T21:17:32.833Z,10.67
2018-04-30T21:20:01.094Z,4.23
2018-04-30T21:22:29.445Z,1.43
2018-04-30T21:24:58.614Z,2.27
2018-04-30T21:27:27.067Z,1.40
2018-04-30T21:29:55.419Z,2.50
2018-04-30T21:32:23.826Z,2.00
2018-04-30T21:34:52.168Z,3.33
2018-04-30T21:37:20.515Z,3.40
2018-04-30T21:39:49.057Z,0.87
2018-04-30T21:42:17.393Z,1.63
2018-04-30T21:44:45.744Z,4.40
2018-04-30T21:47:14.371Z,1.93
2018-04-30T21:49:42.732Z,1.97
2018-04-30T21:52:11.833Z,1.30
2018-04-30T21:54:40.453Z,0.63
2018-04-30T21:57:08.849Z,1.07
2018-04-30T21:59:37.587Z,1.73
2018-04-30T22:02:06.773Z,1.63
2018-04-30T22:04:40.262Z,1.87
2018-04-30T22:07:08.677Z,4.30
2018-04-30T22:09:37.498Z,2.13
2018-04-30T22:12:05.949Z,2.00
2018-04-30T22:14:34.217Z,1.50
2018-04-30T22:17:03.347Z,1.57
2018-04-30T22:19:32.341Z,2.07
2018-04-30T22:22:00.675Z,0.73
2018-04-30T22:24:29.082Z,3.03
2018-04-30T22:26:57.438Z,1.50
2018-04-30T22:29:26.626Z,2.50
2018-04-30T22:31:55.278Z,1.10
2018-04-30T22:34:23.611Z,2.83
2018-04-30T22:36:52.070Z,3.70
2018-04-30T22:39:20.761Z,2.63
2018-04-30T22:41:50.213Z,3.23
2018-04-30T22:44:18.689Z,1.53
2018-04-30T22:46:47.954Z,1.97
2018-04-30T22:49:17.073Z,1.77
2018-04-30T22:51:45.457Z,2.47
2018-04-30T22:54:14.615Z,1.40
2018-04-30T22:56:43.838Z,2.57
2018-04-30T22:59:12.177Z,3.33
2018-04-30T23:01:40.511Z,1.70
2018-04-30T23:04:08.870Z,3.10
2018-04-30T23:06:37.593Z,3.50
2018-04-30T23:09:05.932Z,2.87
2018-04-30T23:11:35.070Z,2.37
2018-04-30T23:14:03.463Z,2.37
2018-04-30T23:16:31.823Z,1.20
2018-04-30T23:19:00.156Z,1.57
2018-04-30T23:21:29.330Z,3.67
2018-04-30T23:23:57.831Z,4.10
2018-04-30T23:26:26.222Z,3.17
2018-04-30T23:28:55.343Z,2.10
2018-04-30T23:31:23.735Z,2.27
2018-04-30T23:33:52.194Z,1.27
2018-04-30T23:36:20.608Z,2.03
2018-04-30T23:38:48.939Z,3.60
2018-04-30T23:41:18.067Z,1.80
2018-04-30T23:43:46.411Z,1.43
2018-04-30T23:46:15.555Z,2.17
2018-04-30T23:48:44.100Z,0.50
2018-04-30T23:51:12.599Z,3.30
2018-04-30T23:53:40.943Z,0.70
2018-04-30T23:56:10.139Z,0.93
2018-04-30T23:58:38.495Z,2.13
